createdAt,value
2019-05-03T00:00:14.073Z,96.39
2019-05-03T00:03:02.083Z,95.77
2019-05-03T00:05:56.314Z,95.72
2019-05-03T00:08:25.661Z,96.31
2019-05-03T00:10:54.783Z,96.58
2019-05-03T00:13:24.035Z,97.04
2019-05-03T00:16:12.301Z,96.68
2019-05-03T00:18:42.242Z,96.40
2019-05-03T00:21:11.733Z,97.10
2019-05-03T00:23:41.771Z,97.02
2019-05-03T00:26:12.012Z,97.00
2019-05-03T00:28:42.659Z,97.27
2019-05-03T00:31:12.441Z,97.83
2019-05-03T00:33:43.370Z,98.06
2019-05-03T00:36:18.755Z,97.54
2019-05-03T00:38:48.370Z,98.45
2019-05-03T00:41:17.664Z,98.21
2019-05-03T00:43:46.871Z,98.06
2019-05-03T00:46:15.966Z,98.50
2019-05-03T00:48:45.226Z,98.30
2019-05-03T00:51:14.462Z,97.97
2019-05-03T00:53:43.704Z,98.09
2019-05-03T00:56:12.813Z,98.23
2019-05-03T00:58:55.634Z,98.25
2019-05-03T01:01:25.059Z,98.91
2019-05-03T01:03:54.388Z,99.34
2019-05-03T01:06:23.566Z,99.39
2019-05-03T01:08:52.731Z,99.61
2019-05-03T01:11:22.457Z,99.46
2019-05-03T01:13:52.195Z,99.81
2019-05-03T01:16:22.798Z,99.92
2019-05-03T01:18:52.306Z,99.88
2019-05-03T01:21:22.547Z,100.00
2019-05-03T01:23:52.712Z,100.00
2019-05-03T01:26:22.805Z,100.00
2019-05-03T01:28:52.441Z,100.00
2019-05-03T01:31:22.850Z,100.00
2019-05-03T01:33:52.285Z,100.00
2019-05-03T01:36:22.802Z,100.00
2019-05-03T01:38:52.914Z,100.00
2019-05-03T01:41:22.405Z,100.00
2019-05-03T01:43:52.677Z,100.00
2019-05-03T01:46:22.775Z,100.00
2019-05-03T01:49:07.540Z,100.00
2019-05-03T01:52:07.738Z,100.00
2019-05-03T01:54:37.162Z,100.00
2019-05-03T01:57:06.407Z,100.00
2019-05-03T01:59:35.642Z,100.00
2019-05-03T02:02:13.094Z,100.00
2019-05-03T02:04:58.428Z,100.00
2019-05-03T02:07:27.700Z,100.00
2019-05-03T02:09:56.927Z,100.00
2019-05-03T02:12:26.138Z,100.00
2019-05-03T02:14:55.381Z,100.00
2019-05-03T02:17:24.605Z,100.00
2019-05-03T02:19:53.830Z,100.00
2019-05-03T02:22:22.946Z,100.00
2019-05-03T02:24:52.655Z,100.00
2019-05-03T02:27:22.015Z,100.00
2019-05-03T02:29:52.421Z,100.00
2019-05-03T02:32:23.218Z,100.00
2019-05-03T02:34:53.522Z,100.00
2019-05-03T02:37:23.078Z,100.00
2019-05-03T02:39:56.555Z,100.00
2019-05-03T02:42:26.518Z,100.00
2019-05-03T02:44:55.999Z,100.00
2019-05-03T02:47:42.735Z,100.00
2019-05-03T02:50:16.657Z,100.00
2019-05-03T02:52:45.967Z,100.00
2019-05-03T02:55:16.271Z,100.00
2019-05-03T02:57:46.713Z,100.00
2019-05-03T03:00:18.056Z,100.00
2019-05-03T03:02:47.587Z,100.00
2019-05-03T03:05:17.063Z,100.00
2019-05-03T03:07:47.092Z,100.00
2019-05-03T03:10:17.454Z,100.00
2019-05-03T03:12:48.828Z,100.00
2019-05-03T03:15:17.961Z,100.00
2019-05-03T03:17:48.426Z,100.00
2019-05-03T03:20:17.926Z,100.00
2019-05-03T03:22:48.150Z,100.00
2019-05-03T03:25:25.756Z,100.00
2019-05-03T03:27:58.470Z,100.00
2019-05-03T03:30:50.674Z,100.00
2019-05-03T03:33:19.615Z,100.00
2019-05-03T03:35:49.602Z,100.00
2019-05-03T03:38:18.705Z,100.00
2019-05-03T03:40:48.139Z,100.00
2019-05-03T03:43:19.023Z,100.00
2019-05-03T03:45:48.845Z,100.00
2019-05-03T03:48:20.448Z,100.00
2019-05-03T03:50:52.152Z,100.00
2019-05-03T03:53:22.736Z,100.00
2019-05-03T03:55:56.220Z,100.00
2019-05-03T03:58:27.121Z,100.00
2019-05-03T04:00:55.653Z,100.00
2019-05-03T04:03:26.043Z,100.00
2019-05-03T04:05:55.744Z,100.00
2019-05-03T04:08:25.333Z,100.00
2019-05-03T04:10:55.875Z,100.00
2019-05-03T04:13:25.862Z,100.00
2019-05-03T04:16:25.943Z,100.00
2019-05-03T04:19:02.451Z,100.00
2019-05-03T04:21:31.552Z,100.00
2019-05-03T04:24:00.767Z,100.00
2019-05-03T04:26:30.391Z,100.00
2019-05-03T04:28:59.603Z,100.00
2019-05-03T04:31:28.957Z,100.00
2019-05-03T04:33:58.254Z,100.00
2019-05-03T04:36:27.427Z,100.00
2019-05-03T04:38:56.703Z,100.00
2019-05-03T04:41:26.877Z,100.00
2019-05-03T04:43:56.286Z,100.00
2019-05-03T04:46:26.124Z,100.00
2019-05-03T04:48:56.085Z,100.00
2019-05-03T04:51:26.174Z,100.00
2019-05-03T04:54:16.142Z,100.00
2019-05-03T04:56:46.518Z,99.03
2019-05-03T04:59:15.932Z,98.81
2019-05-03T05:01:46.223Z,98.77
2019-05-03T05:04:16.209Z,100.00
2019-05-03T05:06:45.621Z,99.61
2019-05-03T05:09:15.616Z,99.95
2019-05-03T05:11:45.805Z,99.49
2019-05-03T05:14:15.527Z,100.00
2019-05-03T05:16:46.559Z,100.00
2019-05-03T05:19:19.094Z,100.00
2019-05-03T05:21:52.639Z,100.00
2019-05-03T05:24:21.975Z,100.00
2019-05-03T05:27:14.628Z,100.00
2019-05-03T05:29:45.064Z,100.00
2019-05-03T05:32:14.588Z,100.00
2019-05-03T05:34:45.929Z,100.00
2019-05-03T05:37:14.996Z,100.00
2019-05-03T05:39:44.744Z,100.00
2019-05-03T05:42:14.939Z,100.00
2019-05-03T05:44:45.420Z,100.00
2019-05-03T05:47:28.579Z,100.00
2019-05-03T05:50:16.676Z,100.00
2019-05-03T05:52:45.796Z,100.00
2019-05-03T05:55:37.097Z,100.00
2019-05-03T05:58:25.783Z,100.00
2019-05-03T06:00:58.768Z,100.00
2019-05-03T06:03:28.064Z,100.00
2019-05-03T06:05:59.175Z,100.00
2019-05-03T06:08:54.730Z,100.00
2019-05-03T06:11:39.118Z,100.00
2019-05-03T06:14:30.456Z,100.00
2019-05-03T06:17:07.792Z,100.00
2019-05-03T06:19:44.915Z,100.00
2019-05-03T06:22:21.606Z,100.00
2019-05-03T06:24:56.642Z,100.00
2019-05-03T06:27:34.654Z,100.00
2019-05-03T06:30:11.905Z,100.00
2019-05-03T06:32:41.845Z,100.00
2019-05-03T06:35:11.522Z,100.00
2019-05-03T06:37:45.808Z,100.00
2019-05-03T06:40:15.160Z,100.00
2019-05-03T06:42:52.383Z,100.00
2019-05-03T06:45:15.896Z,100.00
2019-05-03T06:47:49.461Z,99.57
2019-05-03T06:50:19.643Z,99.15
2019-05-03T06:52:47.847Z,95.35
2019-05-03T06:55:17.149Z,92.59
2019-05-03T06:57:49.554Z,94.75
2019-05-03T07:00:50.497Z,94.27
2019-05-03T07:03:26.124Z,95.81
2019-05-03T07:06:18.637Z,89.71
2019-05-03T07:08:59.063Z,91.53
2019-05-03T07:11:28.238Z,90.36
2019-05-03T07:13:57.319Z,90.61
2019-05-03T07:16:26.471Z,92.22
2019-05-03T07:18:58.134Z,92.68
2019-05-03T07:21:26.631Z,92.64
2019-05-03T07:23:55.986Z,92.99
2019-05-03T07:26:25.528Z,89.75
2019-05-03T07:28:54.877Z,87.60
2019-05-03T07:31:25.547Z,86.69
2019-05-03T07:33:55.443Z,86.43
2019-05-03T07:36:27.618Z,86.58
2019-05-03T07:38:55.633Z,88.28
2019-05-03T07:41:27.146Z,87.82
2019-05-03T07:43:55.850Z,84.09
2019-05-03T07:46:24.919Z,82.22
2019-05-03T07:48:54.834Z,80.52
2019-05-03T07:51:24.847Z,80.87
2019-05-03T07:53:55.590Z,80.24
2019-05-03T07:56:28.975Z,80.93
2019-05-03T07:59:03.396Z,80.64
2019-05-03T08:01:38.978Z,80.69
2019-05-03T08:04:08.083Z,80.52
2019-05-03T08:06:37.231Z,79.78
2019-05-03T08:09:08.456Z,79.65
2019-05-03T08:11:37.892Z,77.28
2019-05-03T08:14:07.939Z,78.17
2019-05-03T08:16:37.396Z,79.14
2019-05-03T08:19:06.463Z,77.51
2019-05-03T08:21:37.830Z,77.46
2019-05-03T08:24:06.661Z,75.13
2019-05-03T08:26:35.697Z,75.47
2019-05-03T08:29:15.675Z,72.33
2019-05-03T08:31:55.150Z,72.08
2019-05-03T08:34:38.258Z,67.91
2019-05-03T08:37:09.488Z,67.74
2019-05-03T08:39:38.721Z,68.62
2019-05-03T08:42:11.752Z,68.81
2019-05-03T08:44:40.817Z,66.58
2019-05-03T08:47:09.934Z,67.06
2019-05-03T08:49:39.121Z,70.92
2019-05-03T08:52:08.574Z,70.70
2019-05-03T08:54:37.632Z,70.96
2019-05-03T08:57:06.727Z,71.26
2019-05-03T08:59:35.984Z,69.36
2019-05-03T09:02:13.991Z,65.56
2019-05-03T09:04:38.587Z,65.30
2019-05-03T09:07:07.304Z,62.90
2019-05-03T09:09:54.965Z,63.45
2019-05-03T09:12:25.208Z,65.80
2019-05-03T09:14:54.846Z,66.53
2019-05-03T09:17:24.708Z,65.17
2019-05-03T09:19:54.820Z,63.31
2019-05-03T09:22:25.580Z,65.00
2019-05-03T09:24:54.984Z,62.22
2019-05-03T09:27:24.816Z,60.42
2019-05-03T09:29:55.846Z,63.58
2019-05-03T09:32:25.654Z,62.21
2019-05-03T09:34:55.152Z,61.24
2019-05-03T09:37:25.026Z,57.39
2019-05-03T09:39:55.209Z,59.02
2019-05-03T09:42:24.911Z,60.15
2019-05-03T09:44:55.606Z,59.42
2019-05-03T09:47:25.350Z,59.99
2019-05-03T09:49:55.851Z,62.52
2019-05-03T09:52:25.292Z,63.15
2019-05-03T09:54:56.300Z,62.09
2019-05-03T09:57:25.980Z,65.45
2019-05-03T09:59:59.805Z,64.37
2019-05-03T10:02:26.315Z,65.61
2019-05-03T10:04:55.545Z,66.40
2019-05-03T10:07:25.933Z,67.73
2019-05-03T10:09:55.477Z,67.77
2019-05-03T10:12:25.676Z,66.04
2019-05-03T10:14:55.132Z,66.90
2019-05-03T10:17:45.788Z,64.85
2019-05-03T10:20:15.490Z,66.55
2019-05-03T10:22:44.574Z,66.32
2019-05-03T10:25:13.824Z,63.43
2019-05-03T10:27:46.202Z,62.50
2019-05-03T10:30:19.562Z,60.33
2019-05-03T10:32:54.626Z,54.69
2019-05-03T10:35:24.681Z,55.96
2019-05-03T10:37:54.884Z,52.94
2019-05-03T10:40:46.964Z,51.66
2019-05-03T10:43:16.213Z,54.22
2019-05-03T10:45:45.393Z,53.34
2019-05-03T10:48:16.034Z,51.26
2019-05-03T10:50:45.552Z,49.86
2019-05-03T10:53:21.808Z,50.77
2019-05-03T10:56:13.948Z,50.15
2019-05-03T10:58:45.587Z,50.62
2019-05-03T11:01:16.414Z,52.03
2019-05-03T11:03:45.905Z,50.01
2019-05-03T11:06:15.310Z,51.49
2019-05-03T11:08:45.086Z,48.07
2019-05-03T11:11:15.127Z,46.61
2019-05-03T11:13:44.361Z,45.83
2019-05-03T11:16:14.794Z,48.22
2019-05-03T11:18:45.576Z,46.94
2019-05-03T11:21:27.721Z,45.79
2019-05-03T11:23:45.596Z,45.23
2019-05-03T11:26:14.851Z,44.60
2019-05-03T11:28:44.891Z,45.16
2019-05-03T11:31:31.805Z,43.20
2019-05-03T11:34:02.766Z,42.72
2019-05-03T11:36:54.937Z,42.64
2019-05-03T11:39:25.056Z,41.98
2019-05-03T11:41:56.997Z,44.88
2019-05-03T11:44:38.422Z,41.60
2019-05-03T11:47:07.960Z,41.03
2019-05-03T11:49:37.297Z,43.11
2019-05-03T11:52:06.788Z,41.38
2019-05-03T11:54:36.171Z,42.65
2019-05-03T11:57:10.702Z,43.24
2019-05-03T11:59:42.015Z,43.50
2019-05-03T12:02:30.203Z,45.41
2019-05-03T12:05:00.480Z,45.09
2019-05-03T12:07:39.534Z,48.64
2019-05-03T12:10:13.891Z,51.51
2019-05-03T12:12:37.815Z,52.57
2019-05-03T12:15:07.054Z,51.08
2019-05-03T12:17:50.823Z,50.36
2019-05-03T12:20:13.580Z,50.92
2019-05-03T12:22:43.725Z,52.20
2019-05-03T12:25:16.705Z,51.39
2019-05-03T12:27:45.532Z,51.90
2019-05-03T12:30:15.335Z,54.06
2019-05-03T12:32:44.791Z,54.23
2019-05-03T12:35:15.395Z,54.88
2019-05-03T12:37:44.738Z,56.21
2019-05-03T12:40:14.954Z,58.93
2019-05-03T12:42:45.489Z,57.47
2019-05-03T12:45:15.324Z,57.60
2019-05-03T12:47:45.484Z,56.62
2019-05-03T12:50:15.697Z,56.49
2019-05-03T12:52:50.403Z,55.01
2019-05-03T12:55:16.024Z,56.68
2019-05-03T12:57:45.883Z,57.82
2019-05-03T13:00:48.640Z,58.58
2019-05-03T13:03:24.636Z,58.52
2019-05-03T13:05:55.596Z,59.35
2019-05-03T13:08:35.680Z,57.87
2019-05-03T13:11:05.535Z,58.05
2019-05-03T13:13:35.855Z,58.52
2019-05-03T13:16:06.136Z,57.11
2019-05-03T13:18:35.589Z,55.90
2019-05-03T13:21:05.995Z,57.42
2019-05-03T13:23:35.903Z,57.61
2019-05-03T13:26:08.673Z,57.17
2019-05-03T13:28:37.914Z,56.93
2019-05-03T13:31:07.962Z,57.08
2019-05-03T13:33:37.363Z,57.13
2019-05-03T13:36:06.937Z,56.51
2019-05-03T13:38:36.238Z,58.31
2019-05-03T13:41:06.834Z,56.84
2019-05-03T13:43:36.350Z,57.46
2019-05-03T13:46:05.913Z,56.46
2019-05-03T13:48:45.296Z,58.04
2019-05-03T13:51:06.053Z,54.86
2019-05-03T13:53:35.222Z,54.80
2019-05-03T13:56:04.941Z,54.48
2019-05-03T13:58:35.783Z,56.39
2019-05-03T14:01:05.795Z,57.92
2019-05-03T14:03:35.293Z,58.41
2019-05-03T14:06:08.656Z,60.33
2019-05-03T14:08:36.223Z,59.75
2019-05-03T14:11:05.479Z,57.91
2019-05-03T14:13:35.408Z,59.42
2019-05-03T14:16:05.765Z,58.22
2019-05-03T14:18:35.480Z,57.08
2019-05-03T14:21:39.239Z,58.83
2019-05-03T14:24:13.222Z,58.75
2019-05-03T14:26:44.784Z,58.92
2019-05-03T14:29:14.904Z,56.25
2019-05-03T14:31:45.334Z,57.76
2019-05-03T14:34:17.108Z,57.40
2019-05-03T14:36:45.532Z,58.91
2019-05-03T14:39:15.148Z,60.39
2019-05-03T14:41:46.774Z,61.71
2019-05-03T14:44:17.859Z,60.88
2019-05-03T14:46:46.282Z,61.15
2019-05-03T14:49:15.447Z,61.24
2019-05-03T14:51:45.557Z,61.69
2019-05-03T14:54:15.755Z,62.61
2019-05-03T14:57:06.918Z,62.15
2019-05-03T15:00:16.957Z,62.75
2019-05-03T15:03:08.895Z,61.40
2019-05-03T15:05:38.040Z,60.95
2019-05-03T15:08:07.620Z,58.80
2019-05-03T15:10:37.045Z,60.61
2019-05-03T15:13:06.279Z,59.89
2019-05-03T15:15:36.269Z,58.92
2019-05-03T15:18:05.964Z,56.66
2019-05-03T15:20:35.107Z,53.68
2019-05-03T15:23:05.509Z,54.56
2019-05-03T15:25:34.837Z,52.72
2019-05-03T15:28:05.044Z,52.51
2019-05-03T15:30:35.370Z,52.65
2019-05-03T15:33:05.265Z,54.30
2019-05-03T15:35:35.132Z,50.20
2019-05-03T15:38:05.543Z,50.50
2019-05-03T15:40:34.814Z,49.50
2019-05-03T15:43:19.481Z,49.00
2019-05-03T15:45:56.170Z,49.27
2019-05-03T15:48:28.030Z,50.49
2019-05-03T15:50:57.161Z,50.99
2019-05-03T15:53:28.090Z,50.59
2019-05-03T15:55:57.243Z,50.79
2019-05-03T15:58:26.565Z,51.29
2019-05-03T16:00:55.707Z,52.77
2019-05-03T16:03:25.352Z,51.20
2019-05-03T16:05:55.658Z,51.03
2019-05-03T16:08:25.215Z,51.06
2019-05-03T16:10:54.872Z,52.18
2019-05-03T16:13:25.293Z,51.56
2019-05-03T16:15:55.362Z,51.87
2019-05-03T16:18:24.757Z,52.40
2019-05-03T16:20:54.614Z,51.80
2019-05-03T16:23:25.234Z,52.55
2019-05-03T16:25:54.643Z,52.60
2019-05-03T16:28:46.062Z,53.65
2019-05-03T16:31:16.246Z,53.16
2019-05-03T16:33:45.788Z,52.85
2019-05-03T16:36:15.003Z,54.05
2019-05-03T16:38:44.897Z,53.15
2019-05-03T16:41:17.441Z,53.90
2019-05-03T16:43:45.702Z,54.62
2019-05-03T16:46:14.848Z,55.07
2019-05-03T16:48:44.798Z,55.49
2019-05-03T16:51:15.042Z,54.99
2019-05-03T16:53:45.194Z,55.72
2019-05-03T16:56:16.569Z,54.67
2019-05-03T16:58:45.769Z,54.90
2019-05-03T17:01:17.899Z,54.73
2019-05-03T17:03:50.998Z,55.18
2019-05-03T17:06:39.454Z,54.85
2019-05-03T17:09:18.166Z,54.94
2019-05-03T17:12:06.229Z,55.01
2019-05-03T17:14:35.865Z,55.09
2019-05-03T17:17:07.267Z,57.37
2019-05-03T17:19:36.202Z,57.10
2019-05-03T17:22:05.784Z,58.65
2019-05-03T17:24:35.398Z,58.81
2019-05-03T17:27:05.085Z,58.09
2019-05-03T17:29:35.109Z,57.68
2019-05-03T17:32:04.933Z,58.04
2019-05-03T17:34:34.746Z,56.50
2019-05-03T17:37:04.964Z,55.52
2019-05-03T17:39:54.733Z,56.81
2019-05-03T17:42:42.904Z,57.12
2019-05-03T17:45:14.704Z,57.48
2019-05-03T17:47:45.443Z,57.03
2019-05-03T17:50:14.862Z,57.94
2019-05-03T17:53:02.885Z,58.80
2019-05-03T17:55:42.140Z,58.50
2019-05-03T17:58:30.351Z,58.60
2019-05-03T18:01:13.406Z,59.24
2019-05-03T18:03:44.978Z,60.03
2019-05-03T18:06:21.032Z,60.68
2019-05-03T18:08:59.282Z,61.42
2019-05-03T18:11:34.637Z,62.10
2019-05-03T18:14:05.550Z,62.63
2019-05-03T18:16:35.093Z,62.63
2019-05-03T18:19:05.217Z,62.55
2019-05-03T18:21:34.749Z,63.94
2019-05-03T18:24:04.951Z,64.50
2019-05-03T18:26:35.541Z,65.33
2019-05-03T18:29:05.797Z,66.17
2019-05-03T18:31:35.024Z,67.04
2019-05-03T18:34:05.176Z,67.39
2019-05-03T18:36:35.099Z,67.96
2019-05-03T18:39:06.766Z,69.57
2019-05-03T18:41:35.941Z,70.03
2019-05-03T18:44:21.045Z,70.43
2019-05-03T18:46:55.064Z,70.56
2019-05-03T18:49:24.862Z,71.36
2019-05-03T18:51:55.392Z,72.00
2019-05-03T18:54:25.143Z,72.53
2019-05-03T18:56:55.749Z,72.90
2019-05-03T18:59:25.232Z,72.82
2019-05-03T19:01:55.191Z,73.13
2019-05-03T19:04:35.785Z,73.77
2019-05-03T19:07:07.383Z,74.62
2019-05-03T19:09:49.501Z,74.79
2019-05-03T19:12:40.776Z,74.82
2019-05-03T19:15:11.401Z,75.44
2019-05-03T19:18:04.366Z,77.53
2019-05-03T19:20:35.235Z,78.10
2019-05-03T19:23:05.042Z,79.13
2019-05-03T19:25:45.807Z,80.18
2019-05-03T19:28:07.899Z,80.26
2019-05-03T19:30:38.861Z,80.35
2019-05-03T19:33:09.072Z,79.97
2019-05-03T19:35:38.514Z,80.58
2019-05-03T19:38:07.862Z,80.28
2019-05-03T19:40:37.125Z,79.94
2019-05-03T19:43:06.241Z,79.70
2019-05-03T19:45:35.480Z,80.10
2019-05-03T19:48:04.730Z,80.61
2019-05-03T19:50:35.300Z,80.62
2019-05-03T19:53:17.505Z,80.76
2019-05-03T19:55:50.373Z,81.13
2019-05-03T19:58:17.957Z,82.16
2019-05-03T20:01:12.127Z,81.70
2019-05-03T20:03:48.333Z,81.80
2019-05-03T20:06:25.239Z,82.30
2019-05-03T20:08:59.509Z,82.30
2019-05-03T20:11:28.895Z,82.55
2019-05-03T20:13:58.264Z,83.07
2019-05-03T20:16:27.375Z,83.05
2019-05-03T20:18:56.529Z,82.94
2019-05-03T20:21:25.834Z,83.34
2019-05-03T20:23:55.517Z,83.92
2019-05-03T20:26:25.381Z,83.67
2019-05-03T20:28:55.349Z,83.89
2019-05-03T20:31:25.291Z,83.97
2019-05-03T20:33:56.152Z,84.29
2019-05-03T20:36:25.466Z,84.67
2019-05-03T20:38:55.090Z,84.72
2019-05-03T20:41:27.521Z,84.85
2019-05-03T20:44:18.567Z,85.27
2019-05-03T20:46:57.928Z,85.40
2019-05-03T20:49:27.135Z,85.87
2019-05-03T20:51:56.485Z,86.43
2019-05-03T20:54:25.561Z,86.71
2019-05-03T20:56:54.890Z,86.82
2019-05-03T20:59:25.337Z,86.44
2019-05-03T21:01:54.676Z,86.65
2019-05-03T21:04:24.698Z,86.62
2019-05-03T21:06:55.197Z,86.90
2019-05-03T21:09:24.876Z,86.79
2019-05-03T21:11:55.158Z,86.94
2019-05-03T21:14:24.544Z,86.72
2019-05-03T21:17:15.963Z,86.53
2019-05-03T21:19:56.883Z,86.90
2019-05-03T21:22:38.947Z,86.72
2019-05-03T21:25:16.600Z,86.85
2019-05-03T21:27:45.875Z,87.21
2019-05-03T21:30:17.092Z,87.40
2019-05-03T21:32:46.233Z,88.07
2019-05-03T21:35:15.568Z,88.32
2019-05-03T21:37:45.390Z,88.44
2019-05-03T21:40:15.646Z,88.54
2019-05-03T21:42:45.301Z,88.86
2019-05-03T21:45:16.237Z,89.17
2019-05-03T21:48:14.649Z,89.49
2019-05-03T21:50:44.723Z,90.12
2019-05-03T21:53:14.726Z,90.10
2019-05-03T21:55:44.877Z,90.18
2019-05-03T21:58:16.143Z,90.09
2019-05-03T22:00:54.661Z,90.39
2019-05-03T22:03:25.300Z,90.36
2019-05-03T22:05:57.852Z,90.24
2019-05-03T22:08:25.338Z,90.13
2019-05-03T22:10:55.480Z,90.05
2019-05-03T22:13:24.791Z,90.27
2019-05-03T22:15:58.863Z,90.27
2019-05-03T22:18:29.824Z,90.60
2019-05-03T22:21:05.532Z,89.88
2019-05-03T22:23:56.603Z,90.15
2019-05-03T22:26:45.260Z,90.15
2019-05-03T22:29:17.233Z,90.05
2019-05-03T22:31:46.026Z,88.65
2019-05-03T22:34:15.249Z,88.46
2019-05-03T22:36:44.606Z,88.06
2019-05-03T22:39:15.662Z,87.92
2019-05-03T22:41:44.561Z,87.73
2019-05-03T22:44:16.818Z,88.51
2019-05-03T22:46:44.976Z,88.85
2019-05-03T22:49:15.591Z,86.40
2019-05-03T22:51:45.155Z,86.57
2019-05-03T22:54:15.367Z,85.77
2019-05-03T22:56:45.007Z,85.91
2019-05-03T22:59:14.879Z,85.57
2019-05-03T23:01:45.771Z,85.76
2019-05-03T23:04:15.796Z,85.72
2019-05-03T23:06:47.107Z,85.85
2019-05-03T23:09:16.085Z,86.02
2019-05-03T23:11:45.189Z,86.32
2019-05-03T23:14:15.170Z,86.30
2019-05-03T23:16:44.964Z,86.67
2019-05-03T23:19:15.139Z,86.95
2019-05-03T23:21:54.463Z,87.34
2019-05-03T23:24:24.750Z,87.78
2019-05-03T23:26:53.888Z,88.05
2019-05-03T23:29:23.239Z,87.43
2019-05-03T23:31:52.322Z,87.17
2019-05-03T23:34:21.733Z,87.74
2019-05-03T23:36:50.849Z,87.85
2019-05-03T23:39:20.129Z,87.69
2019-05-03T23:41:51.443Z,87.69
2019-05-03T23:44:20.554Z,87.57
2019-05-03T23:46:59.920Z,87.42
2019-05-03T23:49:30.877Z,87.93
2019-05-03T23:52:04.508Z,88.09
2019-05-03T23:54:33.657Z,87.87
2019-05-03T23:57:02.796Z,87.91
2019-05-03T23:59:32.041Z,88.11
